Time;durP1;ratioP1;P1;durP2;ratioP2;P2;SDS_P1;SDS_P2;PMS_P1;PMS_P2;Temp;Humidity;BMP_temperature;BMP_pressure;BME280_temperature;BME280_humidity;BME280_pressure;Samples;Min_cycle;Max_cycle;Signal;HPM_P1;HPM_P2
2021/08/21 00:02:13;;;;;;;17.77;12.47;;;;;;;14.32;100.00;101470.00;2639128;36;21116;-50
2021/08/21 00:04:42;;;;;;;16.63;10.50;;;;;;;14.43;100.00;101469.53;2618961;47;20433;-44
2021/08/21 00:07:12;;;;;;;15.10;9.60;;;;;;;14.47;100.00;101461.03;2639070;36;20462;-48
2021/08/21 00:09:41;;;;;;;11.43;6.13;;;;;;;13.95;100.00;101467.72;2618702;47;20152;-46
2021/08/21 00:12:11;;;;;;;11.03;7.40;;;;;;;13.84;100.00;101478.53;2630918;31;20468;-47
2021/08/21 00:14:43;;;;;;;16.40;7.67;;;;;;;13.90;100.00;101478.78;2618177;46;20396;-47
2021/08/21 00:17:13;;;;;;;13.17;8.23;;;;;;;14.02;100.00;101488.78;2636924;36;20459;-46
2021/08/21 00:19:42;;;;;;;21.00;13.80;;;;;;;13.97;100.00;101479.94;2618810;46;20647;-45
2021/08/21 00:22:13;;;;;;;12.40;7.53;;;;;;;13.82;100.00;101487.97;2618308;47;20198;-46
2021/08/21 00:24:43;;;;;;;9.63;5.70;;;;;;;13.39;100.00;101492.25;2619321;47;20412;-47
2021/08/21 00:27:12;;;;;;;9.68;5.80;;;;;;;13.49;100.00;101490.97;2618359;47;20444;-45
2021/08/21 00:29:44;;;;;;;18.77;9.57;;;;;;;13.62;100.00;101495.84;2618036;47;20186;-46
2021/08/21 00:32:14;;;;;;;14.03;9.00;;;;;;;13.84;100.00;101488.91;2617902;47;20494;-46
2021/08/21 00:34:43;;;;;;;18.00;7.45;;;;;;;13.96;100.00;101492.81;2618393;47;20414;-46
2021/08/21 00:37:13;;;;;;;13.43;8.00;;;;;;;14.00;100.00;101494.72;2616835;46;20174;-46
2021/08/21 00:39:42;;;;;;;10.97;6.57;;;;;;;13.43;100.00;101488.09;2617560;47;20877;-47
2021/08/21 00:42:12;;;;;;;10.63;5.93;;;;;;;13.44;100.00;101492.44;2616264;47;20607;-46
2021/08/21 00:44:44;;;;;;;11.57;6.10;;;;;;;13.51;100.00;101494.50;2618155;46;20388;-47
2021/08/21 00:47:15;;;;;;;12.67;7.20;;;;;;;13.68;100.00;101496.91;2617416;46;20404;-45
2021/08/21 00:49:47;;;;;;;14.00;8.00;;;;;;;13.83;100.00;101492.34;2618391;47;20415;-46
2021/08/21 00:52:19;;;;;;;11.30;6.40;;;;;;;13.87;100.00;101486.47;2621872;36;20996;-47
2021/08/21 00:54:48;;;;;;;14.50;8.00;;;;;;;13.88;100.00;101493.41;2617754;47;20407;-47
2021/08/21 00:57:19;;;;;;;14.20;8.63;;;;;;;13.83;100.00;101487.16;2616831;36;20447;-47
2021/08/21 00:59:52;;;;;;;11.17;5.90;;;;;;;13.90;100.00;101478.78;2618447;47;20431;-46
2021/08/21 01:02:22;;;;;;;15.30;7.50;;;;;;;13.78;100.00;101480.88;2620051;36;20451;-47
2021/08/21 01:04:54;;;;;;;11.57;7.50;;;;;;;13.59;100.00;101487.91;2618007;47;20406;-46
2021/08/21 01:07:27;;;;;;;14.33;7.43;;;;;;;13.68;100.00;101489.13;2620952;36;20891;-45
2021/08/21 01:09:57;;;;;;;12.03;6.80;;;;;;;13.73;100.00;101485.91;2619421;47;20407;-45
2021/08/21 01:12:26;;;;;;;13.10;8.37;;;;;;;13.85;100.00;101493.28;2638945;36;20922;-49
2021/08/21 01:14:59;;;;;;;21.00;13.70;;;;;;;13.61;100.00;101490.59;2618179;47;20388;-49
2021/08/21 01:17:29;;;;;;;19.73;10.90;;;;;;;13.60;100.00;101484.50;2618827;47;20403;-47
2021/08/21 01:19:58;;;;;;;17.87;12.27;;;;;;;13.73;100.00;101482.41;2619395;47;20412;-46
2021/08/21 01:22:31;;;;;;;17.43;8.40;;;;;;;13.82;100.00;101484.47;2619001;47;20430;-47
2021/08/21 01:25:01;;;;;;;18.23;12.48;;;;;;;13.80;100.00;101476.66;2618192;47;20400;-47
2021/08/21 01:27:34;;;;;;;16.77;9.33;;;;;;;13.62;100.00;101466.41;2617609;47;20155;-45
2021/08/21 01:30:04;;;;;;;14.83;9.00;;;;;;;13.80;100.00;101471.47;2618039;47;20869;-48
2021/08/21 01:32:33;;;;;;;17.60;10.03;;;;;;;13.87;100.00;101468.31;2617081;47;20932;-44
2021/08/21 01:35:03;;;;;;;12.07;7.80;;;;;;;13.81;100.00;101467.16;2617605;47;20392;-46
2021/08/21 01:37:32;;;;;;;11.43;6.83;;;;;;;13.62;100.00;101454.34;2617298;47;20398;-47
2021/08/21 01:40:02;;;;;;;14.75;6.63;;;;;;;13.47;100.00;101456.31;2617999;47;20408;-47
2021/08/21 01:42:34;;;;;;;12.23;6.45;;;;;;;13.59;100.00;101462.00;2618300;47;20167;-45
2021/08/21 01:45:08;;;;;;;15.50;6.80;;;;;;;13.57;100.00;101463.66;2618862;47;20395;-45
2021/08/21 01:47:37;;;;;;;11.23;6.37;;;;;;;13.77;100.00;101467.06;2618335;47;20435;-48
2021/08/21 01:50:11;;;;;;;10.45;5.88;;;;;;;14.04;100.00;101468.97;2620551;39;20730;-46
2021/08/21 01:52:41;;;;;;;14.03;8.60;;;;;;;13.77;100.00;101466.16;2637925;36;20568;-47
2021/08/21 01:55:11;;;;;;;11.90;7.40;;;;;;;13.91;100.00;101470.16;2618194;47;20948;-47
2021/08/21 01:57:45;;;;;;;11.07;7.53;;;;;;;13.89;100.00;101470.94;2618117;46;20419;-46
2021/08/21 02:00:15;;;;;;;11.20;6.03;;;;;;;13.61;100.00;101459.47;2618478;46;20405;-47
2021/08/21 02:02:46;;;;;;;12.77;7.13;;;;;;;13.15;100.00;101461.00;2618242;46;20178;-48
2021/08/21 02:05:15;;;;;;;12.60;6.80;;;;;;;13.00;100.00;101469.91;2618717;46;20383;-46
2021/08/21 02:07:44;;;;;;;11.18;6.30;;;;;;;13.31;100.00;101471.22;2617350;46;20411;-46
2021/08/21 02:10:14;;;;;;;9.63;6.50;;;;;;;13.19;100.00;101460.31;2618416;46;20155;-47
2021/08/21 02:12:47;;;;;;;13.30;6.43;;;;;;;13.29;100.00;101459.00;2618178;46;20449;-49
2021/08/21 02:15:18;;;;;;;12.90;5.97;;;;;;;13.29;100.00;101457.31;2618662;47;20398;-44
2021/08/21 02:17:48;;;;;;;9.80;5.70;;;;;;;13.33;100.00;101450.53;2618068;46;20463;-48
2021/08/21 02:20:18;;;;;;;10.73;5.47;;;;;;;13.14;100.00;101448.88;2618713;46;20507;-46
2021/08/21 02:22:48;;;;;;;9.37;6.10;;;;;;;13.30;100.00;101453.88;2618957;36;20444;-46
2021/08/21 02:25:18;;;;;;;9.43;5.97;;;;;;;13.20;100.00;101451.72;2618983;46;20384;-44
2021/08/21 02:27:59;;;;;;;13.43;6.00;;;;;;;13.01;100.00;101450.03;2618097;46;20419;-45
2021/08/21 02:30:29;;;;;;;8.37;5.40;;;;;;;13.23;100.00;101444.09;2618745;46;20384;-46
2021/08/21 02:32:58;;;;;;;10.17;6.00;;;;;;;13.09;100.00;101443.50;2644390;36;20792;-49
2021/08/21 02:35:28;;;;;;;9.07;6.10;;;;;;;13.17;100.00;101436.94;2618006;47;20400;-48
2021/08/21 02:37:58;;;;;;;9.43;5.33;;;;;;;13.41;100.00;101435.28;2618242;47;20148;-45
2021/08/21 02:40:27;;;;;;;10.53;5.70;;;;;;;13.41;100.00;101435.28;2618736;46;20420;-47
2021/08/21 02:42:59;;;;;;;11.10;7.40;;;;;;;13.56;100.00;101430.78;2618094;46;20447;-46
2021/08/21 02:45:29;;;;;;;14.37;6.33;;;;;;;13.41;100.00;101428.41;2617564;54;20396;-45
2021/08/21 02:47:59;;;;;;;11.87;7.10;;;;;;;12.90;100.00;101431.47;2618210;47;20393;-44
2021/08/21 02:50:28;;;;;;;12.30;6.67;;;;;;;13.01;100.00;101442.28;2618545;47;20400;-48
2021/08/21 02:52:57;;;;;;;11.33;6.50;;;;;;;12.63;100.00;101447.56;2618081;46;20438;-45
2021/08/21 02:55:27;;;;;;;12.10;7.10;;;;;;;12.78;100.00;101455.13;2618150;46;20403;-45
2021/08/21 02:57:59;;;;;;;17.23;8.43;;;;;;;13.03;100.00;101451.88;2617750;47;20889;-47
2021/08/21 03:00:29;;;;;;;11.40;7.97;;;;;;;13.33;100.00;101459.19;2620193;39;20742;-48
2021/08/21 03:02:58;;;;;;;14.50;7.87;;;;;;;13.17;100.00;101446.44;2618973;46;20455;-46
2021/08/21 03:05:28;;;;;;;13.50;8.00;;;;;;;13.29;100.00;101451.22;2618441;47;20469;-45
2021/08/21 03:07:57;;;;;;;17.52;8.13;;;;;;;13.27;100.00;101453.75;2631034;36;20438;-47
2021/08/21 03:10:27;;;;;;;11.23;8.03;;;;;;;13.29;100.00;101446.94;2619160;39;20514;-44
2021/08/21 03:12:59;;;;;;;9.77;6.73;;;;;;;13.24;100.00;101451.91;2636909;36;20436;-47
2021/08/21 03:15:29;;;;;;;15.20;7.40;;;;;;;13.13;100.00;101460.06;2617600;54;20403;-44
2021/08/21 03:17:59;;;;;;;10.97;6.90;;;;;;;13.28;100.00;101457.22;2617892;46;20418;-45
2021/08/21 03:20:29;;;;;;;16.03;7.37;;;;;;;12.98;100.00;101455.09;2617819;47;20924;-48
2021/08/21 03:22:59;;;;;;;8.27;5.87;;;;;;;12.43;100.00;101466.56;2624249;36;20448;-45
2021/08/21 03:25:29;;;;;;;15.90;6.27;;;;;;;12.19;100.00;101462.88;2618118;46;20438;-44
2021/08/21 03:28:01;;;;;;;7.70;5.80;;;;;;;12.04;100.00;101466.47;2618734;39;20765;-45
2021/08/21 03:30:30;;;;;;;9.80;6.73;;;;;;;12.00;100.00;101478.34;2618420;47;20388;-46
2021/08/21 03:32:59;;;;;;;14.70;8.40;;;;;;;12.24;100.00;101479.47;2617642;46;20428;-45
2021/08/21 03:35:29;;;;;;;16.63;8.83;;;;;;;12.29;100.00;101489.22;2618058;46;20397;-48
2021/08/21 03:37:58;;;;;;;13.20;8.43;;;;;;;12.38;100.00;101493.94;2621312;36;20791;-49
2021/08/21 03:40:28;;;;;;;15.23;8.37;;;;;;;12.49;100.00;101496.13;2619741;46;20417;-47
2021/08/21 03:42:57;;;;;;;17.80;11.30;;;;;;;12.53;100.00;101498.94;2618452;39;20726;-46
2021/08/21 03:45:30;;;;;;;16.93;9.67;;;;;;;12.35;100.00;101498.09;2619321;46;20384;-48
2021/08/21 03:47:59;;;;;;;15.67;9.33;;;;;;;12.34;100.00;101491.13;2618134;46;20396;-48
2021/08/21 03:50:29;;;;;;;13.60;8.20;;;;;;;12.37;100.00;101499.03;2618512;46;20388;-48
2021/08/21 03:52:58;;;;;;;13.50;8.10;;;;;;;12.40;100.00;101505.25;2619772;36;20436;-47
2021/08/21 03:55:28;;;;;;;17.60;9.37;;;;;;;12.63;100.00;101510.59;2619440;47;20161;-44
2021/08/21 03:57:58;;;;;;;10.50;6.97;;;;;;;12.88;100.00;101505.63;2619075;36;20447;-47
2021/08/21 04:00:30;;;;;;;12.93;7.30;;;;;;;13.04;100.00;101505.50;2619403;46;20384;-47
2021/08/21 04:03:00;;;;;;;10.23;6.80;;;;;;;13.20;100.00;101503.53;2620260;36;20557;-45
2021/08/21 04:05:30;;;;;;;10.77;7.07;;;;;;;13.23;100.00;101506.28;2619277;47;20400;-47
2021/08/21 04:07:59;;;;;;;10.47;6.90;;;;;;;13.40;100.00;101500.91;2638517;36;20436;-44
2021/08/21 04:10:29;;;;;;;12.70;8.00;;;;;;;13.42;100.00;101500.16;2619370;47;20417;-47
2021/08/21 04:12:58;;;;;;;11.27;7.37;;;;;;;13.51;100.00;101504.88;2636533;36;20416;-45
2021/08/21 04:15:30;;;;;;;11.13;6.37;;;;;;;13.47;100.00;101492.59;2617778;46;20413;-46
2021/08/21 04:18:00;;;;;;;11.57;7.10;;;;;;;13.20;100.00;101493.19;2634621;36;20479;-51
2021/08/21 04:20:29;;;;;;;11.43;6.97;;;;;;;13.39;100.00;101496.56;2617750;47;20885;-46
2021/08/21 04:22:59;;;;;;;11.47;7.37;;;;;;;13.20;100.00;101498.38;2642437;36;20716;-45
2021/08/21 04:25:28;;;;;;;11.77;6.57;;;;;;;13.60;100.00;101500.06;2618087;54;20874;-46
2021/08/21 04:27:58;;;;;;;9.40;5.90;;;;;;;13.74;100.00;101497.16;2640798;36;20193;-45
2021/08/21 04:30:27;;;;;;;11.57;6.87;;;;;;;13.67;100.00;101495.13;2618266;46;20401;-44
2021/08/21 04:32:59;;;;;;;14.70;6.07;;;;;;;13.81;100.00;101493.09;2636006;36;20450;-48
2021/08/21 04:35:29;;;;;;;10.60;4.97;;;;;;;13.90;100.00;101491.75;2617561;47;20417;-48
2021/08/21 04:38:01;;;;;;;10.70;5.50;;;;;;;14.02;100.00;101487.88;2641681;36;20432;-49
2021/08/21 04:40:30;;;;;;;10.97;5.80;;;;;;;13.76;100.00;101483.41;2617944;47;20154;-43
2021/08/21 04:43:00;;;;;;;10.77;6.53;;;;;;;13.57;100.00;101486.09;2617627;47;20460;-48
2021/08/21 04:45:30;;;;;;;14.10;7.07;;;;;;;13.62;100.00;101482.88;2619281;39;20717;-48
2021/08/21 04:48:02;;;;;;;12.43;7.40;;;;;;;13.45;100.00;101478.66;2636904;36;20565;-48
2021/08/21 04:50:31;;;;;;;10.63;6.80;;;;;;;13.72;100.00;101485.81;2617826;47;20408;-45
2021/08/21 04:53:01;;;;;;;10.18;7.25;;;;;;;13.56;100.00;101485.22;2617505;47;20427;-45
2021/08/21 04:55:30;;;;;;;13.07;8.17;;;;;;;13.14;100.00;101495.50;2618008;47;20158;-45
2021/08/21 04:58:00;;;;;;;12.60;8.20;;;;;;;12.71;100.00;101520.41;2618453;47;20415;-48
2021/08/21 05:00:30;;;;;;;11.70;6.80;;;;;;;12.90;100.00;101520.41;2619274;46;20401;-45
2021/08/21 05:03:03;;;;;;;12.37;7.87;;;;;;;12.94;100.00;101524.03;2636282;36;20451;-44
2021/08/21 05:05:32;;;;;;;18.70;10.15;;;;;;;12.69;100.00;101541.03;2617614;39;20470;-47
2021/08/21 05:08:02;;;;;;;14.43;8.07;;;;;;;12.67;100.00;101537.50;2617220;47;20163;-47
2021/08/21 05:10:31;;;;;;;15.80;9.37;;;;;;;12.67;100.00;101545.28;2618605;39;20711;-49
2021/08/21 05:13:01;;;;;;;17.93;11.00;;;;;;;12.58;100.00;101550.91;2635621;36;20443;-47
2021/08/21 05:15:33;;;;;;;22.00;10.03;;;;;;;12.71;100.00;101554.06;2617558;47;20921;-45
2021/08/21 05:18:06;;;;;;;16.53;9.77;;;;;;;12.82;100.00;101558.03;2618805;36;20450;-47
2021/08/21 05:20:49;;;;;;;17.57;10.30;;;;;;;12.95;100.00;101562.94;2618639;46;20878;-47
2021/08/21 05:23:19;;;;;;;15.65;9.10;;;;;;;13.14;100.00;101558.59;2618719;39;20797;-47
2021/08/21 05:25:50;;;;;;;15.13;8.60;;;;;;;13.34;100.00;101554.25;2618219;46;20152;-47
2021/08/21 05:28:20;;;;;;;15.67;8.60;;;;;;;13.52;100.00;101553.31;2619060;39;20706;-46
2021/08/21 05:30:50;;;;;;;21.07;11.27;;;;;;;13.68;100.00;101549.66;2618676;46;20386;-48
2021/08/21 05:33:23;;;;;;;15.87;8.23;;;;;;;13.93;100.00;101550.66;2618345;46;20423;-46
2021/08/21 05:35:54;;;;;;;14.43;9.37;;;;;;;13.96;100.00;101544.72;2618466;46;20380;-48
2021/08/21 05:38:23;;;;;;;15.17;9.80;;;;;;;14.14;100.00;101549.75;2623243;36;20435;-45
2021/08/21 05:40:53;;;;;;;24.33;12.20;;;;;;;14.03;100.00;101541.53;2618541;47;20403;-44
2021/08/21 05:43:22;;;;;;;33.65;19.05;;;;;;;14.09;100.00;101546.97;2618300;46;20431;-45
2021/08/21 05:45:52;;;;;;;37.17;18.53;;;;;;;14.18;100.00;101541.25;2619647;39;20500;-50
2021/08/21 05:48:24;;;;;;;36.07;21.20;;;;;;;14.20;100.00;101547.38;2618539;46;20404;-47
2021/08/21 05:50:53;;;;;;;38.72;20.33;;;;;;;14.43;100.00;101547.41;2620028;47;20424;-48
2021/08/21 05:53:23;;;;;;;42.60;20.30;;;;;;;14.57;100.00;101551.41;2618333;47;20164;-45
2021/08/21 05:55:52;;;;;;;26.63;15.37;;;;;;;14.63;100.00;101545.56;2619780;47;20407;-44
2021/08/21 05:58:22;;;;;;;22.45;12.27;;;;;;;14.71;100.00;101545.84;2618578;46;20403;-46
2021/08/21 06:00:51;;;;;;;41.53;20.60;;;;;;;14.83;100.00;101548.06;2619910;46;20154;-48
2021/08/21 06:03:24;;;;;;;29.40;15.83;;;;;;;14.74;100.00;101552.88;2642419;36;20466;-45
2021/08/21 06:05:53;;;;;;;35.03;18.23;;;;;;;14.89;100.00;101550.00;2619357;47;20411;-47
2021/08/21 06:08:23;;;;;;;17.03;9.50;;;;;;;14.81;100.00;101553.19;2617949;46;20409;-44
2021/08/21 06:10:55;;;;;;;16.50;8.87;;;;;;;14.78;100.00;101550.50;2619839;47;20893;-47
2021/08/21 06:13:24;;;;;;;12.37;8.20;;;;;;;14.77;100.00;101553.91;2619147;54;20901;-48
2021/08/21 06:15:54;;;;;;;17.67;8.20;;;;;;;14.67;100.00;101560.44;2619655;46;20396;-47
2021/08/21 06:18:26;;;;;;;14.95;7.45;;;;;;;14.65;100.00;101567.28;2619407;36;20518;-44
2021/08/21 06:20:55;;;;;;;15.03;8.17;;;;;;;14.72;100.00;101564.09;2618727;47;20641;-47
2021/08/21 06:23:25;;;;;;;12.43;8.33;;;;;;;14.79;100.00;101561.75;2636104;36;21351;-47
2021/08/21 06:25:55;;;;;;;14.32;8.45;;;;;;;14.76;100.00;101569.44;2618665;46;20407;-46
2021/08/21 06:28:27;;;;;;;15.20;8.80;;;;;;;14.83;100.00;101580.09;2619276;46;20172;-45
2021/08/21 06:30:56;;;;;;;54.47;32.67;;;;;;;14.90;100.00;101589.03;2619861;46;20403;-47
2021/08/21 06:33:30;;;;;;;63.30;37.80;;;;;;;14.87;100.00;101595.81;2629222;36;20451;-45
2021/08/21 06:36:00;;;;;;;39.53;24.23;;;;;;;14.96;100.00;101596.16;2618995;46;20413;-49
2021/08/21 06:38:29;;;;;;;13.40;7.47;;;;;;;14.89;100.00;101600.25;2617974;47;20886;-48
2021/08/21 06:40:58;;;;;;;14.60;7.97;;;;;;;15.01;100.00;101597.22;2618547;46;20391;-46
2021/08/21 06:43:28;;;;;;;9.53;5.97;;;;;;;14.99;100.00;101594.53;2640521;36;20435;-44
2021/08/21 06:45:57;;;;;;;10.27;5.90;;;;;;;15.29;100.00;101599.94;2619617;46;20395;-44
2021/08/21 06:48:32;;;;;;;17.60;8.97;;;;;;;15.27;100.00;101597.25;2636487;36;20491;-47
2021/08/21 06:51:01;;;;;;;24.13;12.17;;;;;;;15.39;100.00;101597.69;2619495;47;20894;-49
2021/08/21 06:53:31;;;;;;;11.80;7.25;;;;;;;15.37;100.00;101594.19;2618473;39;20735;-47
2021/08/21 06:56:02;;;;;;;26.50;15.80;;;;;;;15.48;100.00;101591.94;2618356;47;20613;-45
2021/08/21 06:58:32;;;;;;;14.20;7.40;;;;;;;15.54;100.00;101593.88;2617926;47;20411;-46
2021/08/21 07:01:01;;;;;;;17.90;10.60;;;;;;;15.85;100.00;101581.03;2619794;47;20388;-47
2021/08/21 07:03:33;;;;;;;31.43;13.40;;;;;;;16.01;100.00;101575.50;2637666;36;20951;-47
2021/08/21 07:06:03;;;;;;;16.95;9.73;;;;;;;16.18;100.00;101576.06;2618516;46;20404;-47
2021/08/21 07:08:33;;;;;;;21.13;11.53;;;;;;;16.43;100.00;101566.41;2638418;36;20195;-47
2021/08/21 07:11:03;;;;;;;15.43;9.67;;;;;;;16.31;100.00;101563.44;2619231;47;20468;-46
2021/08/21 07:13:33;;;;;;;11.48;5.07;;;;;;;16.26;100.00;101563.28;2618683;46;20404;-47
2021/08/21 07:16:02;;;;;;;9.17;4.80;;;;;;;16.18;100.00;101565.66;2619623;46;20269;-51
2021/08/21 07:18:35;;;;;;;13.30;8.53;;;;;;;16.38;100.00;101562.78;2637580;36;20423;-49
2021/08/21 07:21:04;;;;;;;41.90;29.77;;;;;;;16.57;100.00;101564.19;2620423;39;20753;-49
2021/08/21 07:23:34;;;;;;;19.60;11.52;;;;;;;16.61;100.00;101557.34;2636929;36;20897;-46
2021/08/21 07:26:03;;;;;;;25.10;15.88;;;;;;;16.66;100.00;101562.72;2619583;46;20144;-46
2021/08/21 07:28:33;;;;;;;27.17;15.80;;;;;;;16.69;100.00;101565.41;2619151;46;20155;-48
2021/08/21 07:31:02;;;;;;;14.53;8.23;;;;;;;16.66;100.00;101573.16;2619768;47;20481;-48
2021/08/21 07:33:34;;;;;;;14.53;9.10;;;;;;;16.69;100.00;101573.22;2618644;46;20429;-45
2021/08/21 07:36:04;;;;;;;20.10;10.60;;;;;;;16.51;100.00;101558.81;2619619;47;20396;-48
2021/08/21 07:38:33;;;;;;;15.70;10.37;;;;;;;16.60;100.00;101564.31;2635868;36;20530;-47
2021/08/21 07:41:03;;;;;;;21.10;13.02;;;;;;;16.86;100.00;101560.69;2618267;47;20466;-47
2021/08/21 07:43:33;;;;;;;33.30;20.10;;;;;;;17.00;100.00;101568.91;2617067;46;20160;-48
2021/08/21 07:46:02;;;;;;;33.03;18.83;;;;;;;17.11;100.00;101562.31;2617822;47;20614;-50
2021/08/21 07:48:34;;;;;;;12.73;8.10;;;;;;;16.95;100.00;101560.06;2617120;47;20529;-46
2021/08/21 07:51:04;;;;;;;14.30;7.73;;;;;;;16.91;100.00;101559.09;2617562;47;20931;-47
2021/08/21 07:53:34;;;;;;;17.20;10.73;;;;;;;17.01;100.00;101562.84;2617797;46;20416;-49
2021/08/21 07:56:06;;;;;;;6.07;3.17;;;;;;;16.99;100.00;101559.31;2617894;47;20148;-49
2021/08/21 07:58:36;;;;;;;21.52;11.70;;;;;;;17.14;100.00;101567.59;2639110;36;20420;-48
2021/08/21 08:01:05;;;;;;;16.60;9.10;;;;;;;17.24;100.00;101568.72;2618088;46;20163;-44
2021/08/21 08:03:38;;;;;;;12.50;6.90;;;;;;;17.22;100.00;101569.53;2641608;36;20806;-46
2021/08/21 08:06:08;;;;;;;8.02;5.15;;;;;;;17.30;100.00;101568.00;2619283;47;20408;-46
2021/08/21 08:08:37;;;;;;;16.43;8.53;;;;;;;17.30;100.00;101561.91;2620747;36;20696;-51
2021/08/21 08:11:06;;;;;;;13.70;8.23;;;;;;;17.38;100.00;101561.28;2619779;39;20755;-48
2021/08/21 08:13:36;;;;;;;9.83;6.10;;;;;;;17.47;100.00;101554.50;2635695;36;20427;-50
2021/08/21 08:16:06;;;;;;;11.10;5.50;;;;;;;17.54;100.00;101556.47;2618060;46;20396;-48
2021/08/21 08:18:38;;;;;;;8.63;5.27;;;;;;;17.61;100.00;101558.38;2617851;47;20434;-47
2021/08/21 08:21:08;;;;;;;6.47;2.93;;;;;;;17.48;100.00;101559.78;2618007;46;20466;-47
2021/08/21 08:23:37;;;;;;;6.50;2.57;;;;;;;17.46;100.00;101555.38;2618201;39;20721;-47
2021/08/21 08:26:07;;;;;;;9.50;4.57;;;;;;;17.68;100.00;101554.19;2617829;46;20424;-49
2021/08/21 08:28:36;;;;;;;9.23;5.13;;;;;;;17.74;100.00;101558.69;2617197;47;20413;-49
2021/08/21 08:31:06;;;;;;;7.07;4.43;;;;;;;17.83;100.00;101558.03;2618174;47;20429;-46
2021/08/21 08:33:38;;;;;;;5.97;3.17;;;;;;;17.88;100.00;101557.28;2640723;36;20963;-47
2021/08/21 08:36:07;;;;;;;10.70;6.07;;;;;;;18.05;100.00;101555.13;2618010;47;20408;-48
2021/08/21 08:38:37;;;;;;;5.05;1.92;;;;;;;17.79;100.00;101549.25;2639293;36;20436;-50
2021/08/21 08:41:11;;;;;;;5.63;2.80;;;;;;;17.73;100.00;101556.94;2618686;39;20542;-48
2021/08/21 08:43:43;;;;;;;8.10;3.50;;;;;;;17.75;100.00;101550.00;2617190;46;20175;-46
2021/08/21 08:46:12;;;;;;;9.10;3.90;;;;;;;18.17;100.00;101558.88;2617524;47;20429;-48
2021/08/21 08:48:45;;;;;;;3.17;1.90;;;;;;;18.19;100.00;101555.44;2636162;36;20423;-45
2021/08/21 08:51:14;;;;;;;6.87;3.37;;;;;;;18.17;100.00;101559.75;2618083;47;20439;-45
2021/08/21 08:53:44;;;;;;;9.00;4.30;;;;;;;18.12;100.00;101548.31;2641658;36;20438;-45
2021/08/21 08:56:14;;;;;;;9.02;3.28;;;;;;;18.25;100.00;101556.44;2617837;47;20415;-47
2021/08/21 08:58:43;;;;;;;5.43;2.27;;;;;;;18.18;100.00;101561.50;2641280;36;20764;-46
2021/08/21 09:01:13;;;;;;;3.33;2.07;;;;;;;18.02;100.00;101559.34;2618491;39;20773;-50
2021/08/21 09:03:45;;;;;;;13.30;6.40;;;;;;;18.25;100.00;101564.28;2617184;47;20411;-48
2021/08/21 09:06:15;;;;;;;11.40;6.87;;;;;;;18.57;100.00;101564.09;2619018;47;20384;-45
2021/08/21 09:08:45;;;;;;;11.93;6.70;;;;;;;18.57;100.00;101564.09;2643368;36;20454;-47
2021/08/21 09:11:22;;;;;;;14.00;7.13;;;;;;;18.52;100.00;101564.00;2619441;47;20428;-47
2021/08/21 09:13:52;;;;;;;7.87;4.63;;;;;;;18.64;100.00;101560.75;2619198;36;20473;-48
2021/08/21 09:16:29;;;;;;;8.90;3.20;;;;;;;18.70;100.00;101554.75;2619097;47;20432;-45
2021/08/21 09:19:08;;;;;;;9.30;4.80;;;;;;;18.79;100.00;101561.91;2620001;36;20432;-46
2021/08/21 09:21:37;;;;;;;4.47;2.80;;;;;;;18.73;100.00;101553.09;2619017;47;20443;-53
2021/08/21 09:24:24;;;;;;;5.23;2.97;;;;;;;18.90;100.00;101557.78;2620445;36;20183;-48
2021/08/21 09:26:54;;;;;;;5.87;3.33;;;;;;;19.10;100.00;101554.72;2624671;36;20443;-49
2021/08/21 09:29:28;;;;;;;11.07;5.63;;;;;;;19.04;100.00;101550.25;2619312;47;20422;-45
2021/08/21 09:32:08;;;;;;;5.80;2.00;;;;;;;18.93;100.00;101552.63;2625870;36;20438;-45
2021/08/21 09:34:41;;;;;;;8.00;3.83;;;;;;;19.07;100.00;101549.44;2619309;47;20419;-46
2021/08/21 09:37:11;;;;;;;7.00;3.50;;;;;;;19.20;100.00;101554.03;2644402;36;20448;-50
2021/08/21 09:39:43;;;;;;;5.97;2.50;;;;;;;19.32;100.00;101542.91;2618950;47;20420;-45
2021/08/21 09:42:13;;;;;;;4.43;2.40;;;;;;;19.48;100.00;101538.81;2642125;36;20467;-49
2021/08/21 09:44:43;;;;;;;6.50;2.40;;;;;;;19.43;100.00;101544.00;2617799;47;20429;-47
2021/08/21 09:47:20;;;;;;;6.13;3.77;;;;;;;19.66;100.00;101545.22;2619426;36;20447;-48
2021/08/21 09:49:54;;;;;;;5.87;3.53;;;;;;;19.70;100.00;101544.44;2619118;54;20420;-48
2021/08/21 09:52:23;;;;;;;2.97;1.50;;;;;;;19.69;100.00;101534.84;2629255;36;20431;-48
2021/08/21 09:55:04;;;;;;;5.23;2.63;;;;;;;19.84;100.00;101540.31;2619673;39;20714;-48
2021/08/21 09:57:35;;;;;;;4.57;2.30;;;;;;;20.29;100.00;101542.72;2619340;36;20447;-44
2021/08/21 10:00:07;;;;;;;5.63;1.60;;;;;;;20.28;100.00;101534.84;2618538;39;20545;-48
2021/08/21 10:02:37;;;;;;;3.57;1.60;;;;;;;20.14;100.00;101534.66;2618340;36;20451;-48
2021/08/21 10:05:11;;;;;;;4.63;1.83;;;;;;;20.06;100.00;101530.16;2620069;47;20412;-46
2021/08/21 10:07:45;;;;;;;3.27;1.60;;;;;;;20.03;100.00;101530.13;2620984;36;20432;-45
2021/08/21 10:10:22;;;;;;;4.53;1.70;;;;;;;20.31;100.00;101530.50;2619860;46;20408;-46
2021/08/21 10:12:56;;;;;;;3.63;1.43;;;;;;;20.42;100.00;101524.56;2619903;36;20458;-47
2021/08/21 10:15:25;;;;;;;9.77;1.70;;;;;;;20.66;100.00;101521.34;2618506;47;20849;-46
2021/08/21 10:17:57;;;;;;;4.35;1.60;;;;;;;20.97;100.00;101520.88;2632363;36;20763;-50
2021/08/21 10:20:29;;;;;;;3.00;1.60;;;;;;;20.53;100.00;101525.56;2619790;46;20153;-47
2021/08/21 10:22:58;;;;;;;4.53;1.97;;;;;;;20.73;100.00;101522.31;2632082;36;20446;-50
2021/08/21 10:25:28;;;;;;;3.70;1.90;;;;;;;21.12;100.00;101514.91;2619703;46;20409;-52
2021/08/21 10:28:01;;;;;;;9.00;3.30;;;;;;;20.97;100.00;101518.25;2642360;36;20427;-49
2021/08/21 10:30:42;;;;;;;15.10;9.93;;;;;;;20.94;100.00;101518.19;2619814;46;20403;-46
2021/08/21 10:33:12;;;;;;;40.57;25.30;;;;;;;21.16;100.00;101506.16;2618653;46;20446;-48
2021/08/21 10:35:48;;;;;;;3.93;1.83;;;;;;;21.25;100.00;101515.88;2619656;46;20404;-47
2021/08/21 10:38:40;;;;;;;8.60;4.23;;;;;;;21.33;100.00;101510.72;2628407;36;20423;-45
2021/08/21 10:41:37;;;;;;;5.10;2.53;;;;;;;21.22;100.00;101516.72;2619795;46;20428;-50
2021/08/21 10:44:07;;;;;;;3.30;1.50;;;;;;;20.59;100.00;101525.66;2637197;36;20532;-47
2021/08/21 10:46:55;;;;;;;4.60;1.30;;;;;;;20.70;100.00;101522.25;2636886;36;20388;-49
2021/08/21 10:49:43;;;;;;;6.03;1.93;;;;;;;20.93;100.00;101522.56;2619442;46;20409;-48
2021/08/21 10:52:43;;;;;;;5.10;2.70;;;;;;;20.55;100.00;101513.34;2636638;36;20455;-48
2021/08/21 10:55:20;;;;;;;9.70;4.67;;;;;;;20.94;100.00;101515.56;2620001;39;20752;-51
2021/08/21 10:58:04;;;;;;;10.90;6.63;;;;;;;21.09;100.00;101517.47;2626111;36;20430;-46
2021/08/21 11:00:52;;;;;;;5.00;2.07;;;;;;;20.77;100.00;101519.72;2619889;46;20400;-48
2021/08/21 11:03:43;;;;;;;5.67;2.80;;;;;;;20.89;100.00;101519.03;2647124;36;20439;-45
2021/08/21 11:06:14;;;;;;;9.30;5.50;;;;;;;20.96;100.00;101511.25;2619800;47;20412;-48
2021/08/21 11:09:00;;;;;;;5.93;3.40;;;;;;;20.91;100.00;101512.06;2641184;36;20431;-48
2021/08/21 11:11:42;;;;;;;7.37;4.40;;;;;;;21.35;100.00;101515.09;2618236;47;20436;-47
2021/08/21 11:14:40;;;;;;;3.88;1.85;;;;;;;21.31;100.00;101514.19;2620351;36;20981;-46
2021/08/21 11:17:11;;;;;;;5.27;1.93;;;;;;;21.78;100.00;101516.34;2641423;36;20199;-47
2021/08/21 11:19:45;;;;;;;4.17;1.20;;;;;;;21.93;100.00;101508.56;2619220;47;20408;-50
2021/08/21 11:22:30;;;;;;;3.90;1.80;;;;;;;22.15;100.00;101515.69;2638722;36;20437;-47
2021/08/21 11:25:09;;;;;;;5.05;2.85;;;;;;;22.18;100.00;101503.47;2619435;47;20558;-49
2021/08/21 11:27:46;;;;;;;4.73;2.27;;;;;;;22.21;100.00;101511.34;2620159;36;20186;-46
2021/08/21 11:30:24;;;;;;;4.77;2.23;;;;;;;22.16;100.00;101507.84;2619464;46;20415;-49